Time;durP1;ratioP1;P1;durP2;ratioP2;P2;SDS_P1;SDS_P2;PMS_P1;PMS_P2;Temp;Humidity;BMP_temperature;BMP_pressure;BME280_temperature;BME280_humidity;BME280_pressure;Samples;Min_cycle;Max_cycle;Signal;HPM_P1;HPM_P2
2021/01/12 00:01:55;;;;;;;136.80;59.43;;;;;;;-4.49;72.34;98858.61;2161819;82;21166;-78
2021/01/12 00:04:56;;;;;;;132.57;60.63;;;;;;;-4.47;72.42;98857.83;2161874;82;21504;-78
2021/01/12 00:07:57;;;;;;;139.43;58.90;;;;;;;-4.49;72.32;98844.98;2161758;82;21257;-78
2021/01/12 00:11:02;;;;;;;123.83;57.70;;;;;;;-4.52;72.39;98844.38;2161823;82;21495;-79
2021/01/12 00:14:03;;;;;;;131.33;58.03;;;;;;;-4.54;72.46;98848.48;2161753;82;21118;-81
2021/01/12 00:17:07;;;;;;;138.30;61.60;;;;;;;-4.56;72.54;98846.22;2161643;82;21249;-78
2021/01/12 00:20:08;;;;;;;134.43;59.58;;;;;;;-4.54;72.40;98851.03;2162033;82;21385;-78
2021/01/12 00:23:09;;;;;;;149.23;64.70;;;;;;;-4.57;72.40;98844.83;2161734;82;21241;-78
2021/01/12 00:26:10;;;;;;;139.53;59.40;;;;;;;-4.60;72.49;98841.68;2161853;82;21198;-78
2021/01/12 00:29:11;;;;;;;152.73;63.83;;;;;;;-4.60;72.65;98839.52;2161487;82;21289;-78
2021/01/12 00:32:12;;;;;;;141.97;64.77;;;;;;;-4.59;72.77;98840.02;2161092;82;21250;-78
2021/01/12 00:35:13;;;;;;;152.20;61.10;;;;;;;-4.60;72.76;98835.31;2161728;82;21138;-77
2021/01/12 00:38:14;;;;;;;143.60;63.43;;;;;;;-4.58;72.80;98829.94;2165585;81;21281;-78
2021/01/12 00:41:15;;;;;;;150.23;65.43;;;;;;;-4.58;72.97;98832.48;2172114;82;21257;-78
2021/01/12 00:44:17;;;;;;;144.00;64.63;;;;;;;-4.57;73.07;98825.34;2172417;82;21106;-79
2021/01/12 00:47:23;;;;;;;129.30;59.40;;;;;;;-4.56;73.13;98819.86;2173786;82;21181;-78
2021/01/12 00:50:21;;;;;;;130.33;58.93;;;;;;;-4.60;72.92;98813.66;2165194;82;21253;-78
2021/01/12 00:53:22;;;;;;;141.37;59.43;;;;;;;-4.61;73.10;98809.34;2161292;82;21373;-78
2021/01/12 00:56:23;;;;;;;141.43;64.83;;;;;;;-4.62;73.26;98802.48;2161007;82;21245;-78
2021/01/12 00:59:24;;;;;;;133.53;59.20;;;;;;;-4.61;73.25;98797.89;2160768;82;21245;-77
2021/01/12 01:02:25;;;;;;;142.13;63.27;;;;;;;-4.60;73.19;98790.73;2161274;82;21552;-77
2021/01/12 01:05:26;;;;;;;143.57;62.80;;;;;;;-4.58;73.15;98794.28;2161505;82;21289;-79
2021/01/12 01:08:28;;;;;;;125.43;54.40;;;;;;;-4.58;72.98;98794.66;2160500;82;21162;-78
2021/01/12 01:11:29;;;;;;;153.30;66.00;;;;;;;-4.53;73.19;98778.03;2160572;82;21520;-78
2021/01/12 01:14:30;;;;;;;141.90;63.53;;;;;;;-4.59;72.82;98774.67;2160667;82;21292;-78
2021/01/12 01:17:31;;;;;;;132.60;57.00;;;;;;;-4.59;72.96;98771.25;2160767;82;21264;-80
2021/01/12 01:20:32;;;;;;;146.50;63.50;;;;;;;-4.59;72.92;98765.77;2160696;82;21516;-78
2021/01/12 01:23:35;;;;;;;152.70;64.97;;;;;;;-4.64;72.95;98763.67;2160421;82;21559;-77
2021/01/12 01:26:36;;;;;;;131.30;57.93;;;;;;;-4.65;73.19;98767.88;2160921;82;21309;-78
2021/01/12 01:29:38;;;;;;;135.37;61.17;;;;;;;-4.65;73.13;98757.70;2161698;82;21102;-78
2021/01/12 01:32:39;;;;;;;153.57;67.60;;;;;;;-4.65;73.22;98761.52;2161359;82;21532;-78
2021/01/12 01:35:40;;;;;;;135.93;63.27;;;;;;;-4.65;73.36;98756.42;2161746;82;21147;-78
2021/01/12 01:38:41;;;;;;;141.23;62.73;;;;;;;-4.61;73.43;98744.39;2157401;82;21453;-78
2021/01/12 01:41:43;;;;;;;144.00;62.63;;;;;;;-4.59;73.45;98741.95;2160938;82;21409;-78
2021/01/12 01:44:44;;;;;;;153.97;63.10;;;;;;;-4.60;73.51;98739.80;2136337;83;21142;-78
2021/01/12 01:47:47;;;;;;;143.00;64.27;;;;;;;-4.58;73.54;98739.90;2151362;83;21445;-78
2021/01/12 01:50:48;;;;;;;144.87;62.63;;;;;;;-4.59;73.53;98727.94;2151117;82;21134;-78
2021/01/12 01:53:49;;;;;;;136.30;61.93;;;;;;;-4.57;73.56;98720.90;2150926;83;21143;-78
2021/01/12 01:56:50;;;;;;;138.33;62.57;;;;;;;-4.55;73.56;98717.18;2150885;83;21385;-78
2021/01/12 01:59:51;;;;;;;140.37;60.43;;;;;;;-4.55;73.48;98712.97;2151030;83;21139;-78
2021/01/12 02:02:52;;;;;;;134.63;59.90;;;;;;;-4.56;73.42;98702.29;2150887;83;21131;-78
2021/01/12 02:05:53;;;;;;;149.73;68.27;;;;;;;-4.56;73.37;98706.11;2150459;82;21170;-78
2021/01/12 02:08:54;;;;;;;129.50;57.37;;;;;;;-4.57;73.35;98701.80;2151412;83;21135;-76
2021/01/12 02:11:58;;;;;;;142.33;62.67;;;;;;;-4.59;73.34;98702.08;2151276;83;21134;-77
2021/01/12 02:14:59;;;;;;;129.60;56.23;;;;;;;-4.61;73.36;98696.00;2151202;83;21119;-78
2021/01/12 02:18:00;;;;;;;147.70;65.30;;;;;;;-4.60;73.51;98707.07;2151373;82;21377;-78
2021/01/12 02:21:01;;;;;;;145.43;62.77;;;;;;;-4.59;73.46;98707.17;2151340;82;21163;-78
2021/01/12 02:24:03;;;;;;;153.10;61.67;;;;;;;-4.56;73.41;98703.56;2151394;83;21429;-78
2021/01/12 02:27:04;;;;;;;143.23;61.57;;;;;;;-4.56;73.34;98695.92;2151875;83;21175;-79
2021/01/12 02:30:05;;;;;;;165.70;61.20;;;;;;;-4.54;73.31;98694.75;2151341;82;21127;-78
2021/01/12 02:33:06;;;;;;;185.53;71.23;;;;;;;-4.54;73.19;98684.56;2151427;83;21147;-78
2021/01/12 02:36:07;;;;;;;199.63;68.70;;;;;;;-4.55;73.11;98680.25;2150955;82;21440;-77
2021/01/12 02:39:08;;;;;;;261.03;83.20;;;;;;;-4.56;73.16;98670.45;2151342;82;21178;-78
2021/01/12 02:42:09;;;;;;;214.27;78.23;;;;;;;-4.54;73.21;98665.45;2151378;83;21130;-78
2021/01/12 02:45:10;;;;;;;168.57;69.33;;;;;;;-4.53;73.16;98655.76;2151746;83;21139;-78
2021/01/12 02:48:11;;;;;;;143.43;59.60;;;;;;;-4.52;73.16;98656.25;2151300;83;21155;-78
2021/01/12 02:51:14;;;;;;;125.53;51.27;;;;;;;-4.54;73.21;98647.23;2151260;83;21143;-78
2021/01/12 02:54:16;;;;;;;104.40;45.87;;;;;;;-4.53;73.28;98640.09;2151966;83;21127;-78
2021/01/12 02:57:17;;;;;;;100.10;46.33;;;;;;;-4.50;73.38;98632.64;2151879;83;21135;-79
2021/01/12 03:00:20;;;;;;;104.40;47.40;;;;;;;-4.50;73.42;98618.63;2151770;83;21127;-79
2021/01/12 03:03:22;;;;;;;107.13;48.30;;;;;;;-4.45;73.56;98615.12;2152553;83;21131;-79
2021/01/12 03:06:23;;;;;;;95.43;44.17;;;;;;;-4.39;73.63;98608.27;2151749;83;21175;-77
2021/01/12 03:09:24;;;;;;;101.13;42.43;;;;;;;-4.34;73.63;98597.59;2150985;83;21142;-78
2021/01/12 03:12:25;;;;;;;101.80;42.40;;;;;;;-4.32;73.59;98585.88;2150605;83;21130;-78
2021/01/12 03:15:26;;;;;;;86.53;37.83;;;;;;;-4.28;73.58;98583.13;2150550;83;21701;-78
2021/01/12 03:18:27;;;;;;;89.63;39.33;;;;;;;-4.27;73.63;98582.34;2151405;83;21099;-78
2021/01/12 03:21:28;;;;;;;97.03;43.73;;;;;;;-4.25;73.67;98580.78;2151822;82;21167;-79
2021/01/12 03:24:30;;;;;;;80.70;36.80;;;;;;;-4.23;73.63;98580.48;2150836;83;21429;-78
2021/01/12 03:27:31;;;;;;;89.80;40.17;;;;;;;-4.20;73.57;98576.86;2151382;82;21174;-78
2021/01/12 03:30:34;;;;;;;94.43;42.10;;;;;;;-4.19;73.48;98570.98;2151607;83;21127;-78
2021/01/12 03:33:35;;;;;;;96.90;40.37;;;;;;;-4.20;73.30;98569.22;2151651;83;21096;-78
2021/01/12 03:36:36;;;;;;;109.57;43.10;;;;;;;-4.22;73.29;98561.86;2151958;83;21413;-78
2021/01/12 03:39:37;;;;;;;119.57;45.80;;;;;;;-4.23;73.23;98549.91;2154111;82;21445;-78
2021/01/12 03:42:38;;;;;;;98.70;42.27;;;;;;;-4.24;73.23;98548.14;2155474;82;21232;-78
2021/01/12 03:45:39;;;;;;;106.53;41.50;;;;;;;-4.23;73.19;98550.78;2154452;83;21143;-78
2021/01/12 03:48:40;;;;;;;111.47;43.63;;;;;;;-4.22;73.12;98551.28;2155505;82;21103;-78
2021/01/12 03:51:41;;;;;;;116.43;44.40;;;;;;;-4.20;73.03;98551.38;2155348;82;21131;-79
2021/01/12 03:54:43;;;;;;;110.53;43.13;;;;;;;-4.19;72.96;98537.84;2155586;82;21135;-79
2021/01/12 03:57:45;;;;;;;107.67;44.07;;;;;;;-4.18;72.91;98535.78;2155248;83;21143;-79
2021/01/12 04:00:46;;;;;;;95.67;42.70;;;;;;;-4.15;72.83;98536.38;2155338;82;21111;-77
2021/01/12 04:03:49;;;;;;;90.93;38.50;;;;;;;-4.12;72.79;98538.73;2155457;82;21165;-79
2021/01/12 04:06:50;;;;;;;101.07;43.57;;;;;;;-4.09;72.69;98539.31;2155462;83;21151;-79
2021/01/12 04:09:52;;;;;;;98.37;40.67;;;;;;;-4.08;72.60;98531.77;2155291;82;21131;-78
2021/01/12 04:12:53;;;;;;;106.57;42.07;;;;;;;-4.06;72.38;98521.66;2155487;82;21135;-79
2021/01/12 04:15:54;;;;;;;98.93;41.60;;;;;;;-4.08;72.30;98513.92;2155524;82;21127;-77
2021/01/12 04:18:55;;;;;;;101.23;41.57;;;;;;;-4.08;72.38;98520.69;2154767;82;21130;-78
2021/01/12 04:21:56;;;;;;;104.90;44.00;;;;;;;-4.08;72.38;98520.69;2154402;82;21119;-77
2021/01/12 04:24:57;;;;;;;93.07;41.10;;;;;;;-4.09;72.18;98516.38;2154218;82;21237;-78
2021/01/12 04:27:58;;;;;;;92.37;38.33;;;;;;;-4.11;72.13;98511.18;2154602;82;21139;-78
2021/01/12 04:30:59;;;;;;;84.23;37.10;;;;;;;-4.13;72.02;98500.39;2154321;82;21138;-78
2021/01/12 04:34:00;;;;;;;87.30;37.47;;;;;;;-4.18;71.94;98501.38;2153779;82;21095;-78
2021/01/12 04:37:01;;;;;;;87.07;36.23;;;;;;;-4.21;72.04;98493.54;2154194;82;21123;-79
2021/01/12 04:40:02;;;;;;;86.23;32.67;;;;;;;-4.21;71.97;98484.63;2151600;82;21174;-78
2021/01/12 04:43:04;;;;;;;134.00;36.97;;;;;;;-4.25;71.90;98483.94;2149955;83;21287;-79
2021/01/12 04:46:05;;;;;;;69.33;32.53;;;;;;;-4.28;72.04;98476.09;2149585;83;21269;-78
2021/01/12 04:49:06;;;;;;;74.10;29.23;;;;;;;-4.25;72.10;98463.16;2149067;83;21250;-78
2021/01/12 04:52:09;;;;;;;76.83;31.90;;;;;;;-4.25;72.01;98456.78;2149307;83;21266;-78
2021/01/12 04:55:10;;;;;;;87.17;32.47;;;;;;;-4.25;72.03;98445.71;2148258;83;21245;-78
2021/01/12 04:58:11;;;;;;;94.83;27.97;;;;;;;-4.26;72.07;98439.73;2146891;83;21115;-79
2021/01/12 05:01:12;;;;;;;78.87;29.60;;;;;;;-4.25;72.00;98436.80;2149161;83;21138;-78
2021/01/12 05:04:13;;;;;;;66.37;30.10;;;;;;;-4.26;71.99;98441.40;2149163;83;21285;-78
2021/01/12 05:07:14;;;;;;;63.60;26.40;;;;;;;-4.23;72.07;98441.20;2148367;83;21285;-78
2021/01/12 05:10:15;;;;;;;47.00;23.67;;;;;;;-4.16;72.12;98439.91;2148402;83;21138;-78
2021/01/12 05:13:16;;;;;;;47.17;22.77;;;;;;;-3.96;73.49;98434.77;2148402;83;21092;-78
2021/01/12 05:16:17;;;;;;;51.30;26.00;;;;;;;-3.74;72.03;98431.46;2148267;83;21143;-78
2021/01/12 05:19:18;;;;;;;56.73;23.97;;;;;;;-3.75;71.68;98430.97;2148099;83;21574;-79
2021/01/12 05:22:20;;;;;;;46.67;22.40;;;;;;;-3.79;71.54;98419.22;2148496;83;21257;-77
2021/01/12 05:25:21;;;;;;;41.37;22.20;;;;;;;-3.79;71.51;98415.39;2148410;83;21595;-79
2021/01/12 05:28:22;;;;;;;43.37;20.47;;;;;;;-3.82;71.49;98406.28;2149163;83;21263;-78
2021/01/12 05:31:24;;;;;;;128.67;40.17;;;;;;;-3.83;71.50;98405.41;2148917;83;21503;-78
2021/01/12 05:34:25;;;;;;;286.23;84.43;;;;;;;-3.82;71.51;98396.96;2148808;83;21257;-78
2021/01/12 05:37:26;;;;;;;259.73;78.23;;;;;;;-3.83;71.37;98395.20;2148796;83;21273;-77
2021/01/12 05:40:28;;;;;;;140.73;40.57;;;;;;;-3.82;71.37;98388.03;2149341;82;21289;-79
2021/01/12 05:43:29;;;;;;;93.93;30.13;;;;;;;-3.81;71.26;98386.37;2149400;83;21277;-78
2021/01/12 05:46:30;;;;;;;86.33;31.27;;;;;;;-3.79;71.31;98389.50;2148664;83;21286;-78
2021/01/12 05:49:31;;;;;;;70.93;26.57;;;;;;;-3.74;71.29;98389.77;2149105;83;21257;-78
2021/01/12 05:52:32;;;;;;;52.77;22.43;;;;;;;-3.68;71.18;98385.03;2147959;83;21244;-77
2021/01/12 05:55:33;;;;;;;46.43;17.67;;;;;;;-3.62;71.00;98368.81;2147463;83;21135;-77
2021/01/12 05:58:34;;;;;;;29.17;15.60;;;;;;;-3.58;70.93;98361.83;2147782;83;21273;-76
2021/01/12 06:01:35;;;;;;;30.20;14.87;;;;;;;-3.53;70.88;98366.80;2147810;83;21119;-76
2021/01/12 06:04:36;;;;;;;38.77;15.37;;;;;;;-3.46;70.80;98367.69;2148945;83;21327;-76
2021/01/12 06:07:37;;;;;;;35.67;16.77;;;;;;;-3.38;70.72;98363.91;2148656;83;21301;-76
2021/01/12 06:10:38;;;;;;;61.33;29.17;;;;;;;-3.29;70.53;98359.73;2148929;83;21258;-76
2021/01/12 06:13:39;;;;;;;159.23;56.43;;;;;;;-3.18;70.31;98351.41;2148678;83;21249;-76
2021/01/12 06:16:40;;;;;;;95.03;38.17;;;;;;;-3.09;70.14;98357.04;2149297;83;21262;-76
2021/01/12 06:19:41;;;;;;;143.10;52.87;;;;;;;-2.98;69.97;98359.80;2149647;83;21261;-76
2021/01/12 06:22:42;;;;;;;121.17;51.17;;;;;;;-2.91;69.70;98359.35;2148910;83;21123;-76
2021/01/12 06:25:43;;;;;;;86.67;35.67;;;;;;;-2.84;69.74;98347.41;2148675;83;21313;-76
2021/01/12 06:28:45;;;;;;;54.60;26.80;;;;;;;-2.78;69.80;98340.09;2147770;83;21269;-76
2021/01/12 06:31:46;;;;;;;62.13;27.27;;;;;;;-2.72;69.55;98337.87;2148434;83;21262;-77
2021/01/12 06:34:47;;;;;;;70.37;26.63;;;;;;;-2.64;69.34;98339.56;2148222;83;21268;-76
2021/01/12 06:37:48;;;;;;;59.30;23.23;;;;;;;-2.58;69.37;98333.15;2148092;83;21119;-77
2021/01/12 06:40:49;;;;;;;53.67;24.90;;;;;;;-2.51;68.99;98330.53;2148810;82;21352;-76
2021/01/12 06:43:50;;;;;;;55.53;21.53;;;;;;;-2.42;69.04;98331.42;2147996;83;21582;-76
2021/01/12 06:46:51;;;;;;;50.67;18.00;;;;;;;-2.35;68.98;98336.95;2147722;83;21309;-76
2021/01/12 06:49:52;;;;;;;42.83;19.47;;;;;;;-2.33;68.69;98321.69;2146950;83;21257;-76
2021/01/12 06:52:53;;;;;;;51.33;20.43;;;;;;;-2.33;68.70;98329.36;2147352;83;21258;-76
2021/01/12 06:55:54;;;;;;;52.93;22.60;;;;;;;-2.30;68.66;98323.13;2147264;83;21122;-75
2021/01/12 06:58:55;;;;;;;43.93;20.10;;;;;;;-2.25;68.59;98326.41;2147859;83;21254;-75
2021/01/12 07:01:56;;;;;;;371.23;44.33;;;;;;;-2.17;68.15;98322.11;2147025;83;21277;-75
2021/01/12 07:04:58;;;;;;;58.03;22.57;;;;;;;-2.11;68.18;98318.59;2146206;83;21741;-76
2021/01/12 07:07:59;;;;;;;59.27;23.40;;;;;;;-2.03;67.96;98308.36;2147273;83;21301;-76
2021/01/12 07:11:00;;;;;;;79.63;25.93;;;;;;;-1.96;67.76;98300.20;2147616;83;21258;-77
2021/01/12 07:14:01;;;;;;;54.40;24.67;;;;;;;-1.86;67.62;98293.88;2147703;83;21259;-78
2021/01/12 07:17:02;;;;;;;54.17;25.23;;;;;;;-1.76;67.34;98297.39;2147101;83;21269;-77
2021/01/12 07:20:03;;;;;;;80.13;27.07;;;;;;;-1.65;67.18;98294.61;2148102;83;21258;-76
2021/01/12 07:23:04;;;;;;;61.90;28.87;;;;;;;-1.55;67.01;98288.66;2148157;83;21253;-76
2021/01/12 07:26:05;;;;;;;64.07;26.60;;;;;;;-1.39;66.92;98280.54;2147141;83;21158;-76
2021/01/12 07:29:08;;;;;;;66.90;28.80;;;;;;;-1.23;66.62;98280.01;2147602;83;21257;-77
2021/01/12 07:32:09;;;;;;;60.37;24.50;;;;;;;-1.14;66.10;98276.20;2146888;83;21285;-77
2021/01/12 07:35:10;;;;;;;113.77;29.93;;;;;;;-1.01;65.92;98272.55;2147970;83;21257;-77
2021/01/12 07:38:12;;;;;;;50.33;22.60;;;;;;;-0.88;66.04;98265.91;2147472;83;21254;-76
2021/01/12 07:41:13;;;;;;;56.10;22.87;;;;;;;-0.73;65.32;98256.81;2147498;82;21305;-77
2021/01/12 07:44:14;;;;;;;55.37;25.63;;;;;;;-0.57;65.13;98257.11;2148553;83;21270;-77
2021/01/12 07:47:15;;;;;;;63.60;27.27;;;;;;;-0.41;65.08;98255.31;2147909;83;21305;-77
2021/01/12 07:50:16;;;;;;;108.97;38.23;;;;;;;-0.24;64.36;98253.50;2147664;83;21253;-78
2021/01/12 07:53:17;;;;;;;89.70;30.47;;;;;;;-0.11;64.22;98246.81;2147900;83;21343;-77
2021/01/12 07:56:19;;;;;;;84.37;28.93;;;;;;;0.02;63.86;98240.56;2147279;83;21855;-78
2021/01/12 07:59:20;;;;;;;69.83;24.07;;;;;;;0.13;63.42;98230.75;2147665;83;21257;-77
2021/01/12 08:02:21;;;;;;;83.30;26.03;;;;;;;0.23;63.04;98232.91;2147699;83;21258;-77
2021/01/12 08:05:23;;;;;;;64.43;22.80;;;;;;;0.29;63.01;98223.77;2148178;83;21270;-77
2021/01/12 08:08:24;;;;;;;75.10;25.03;;;;;;;0.30;60.58;98222.08;2147123;83;21281;-77
2021/01/12 08:11:25;;;;;;;79.03;28.40;;;;;;;0.29;62.05;98221.61;2148270;83;21602;-76
2021/01/12 08:14:26;;;;;;;101.00;27.70;;;;;;;0.42;62.07;98221.70;2147777;83;21245;-77
2021/01/12 08:17:28;;;;;;;59.50;22.80;;;;;;;0.48;62.00;98209.13;2148095;83;21277;-76
2021/01/12 08:20:29;;;;;;;76.13;24.57;;;;;;;0.53;60.96;98217.48;2147375;83;21289;-76
2021/01/12 08:23:30;;;;;;;65.40;19.10;;;;;;;0.58;60.51;98218.95;2147664;83;21250;-79
2021/01/12 08:26:31;;;;;;;91.93;19.93;;;;;;;0.73;60.90;98225.12;2147700;83;21875;-76
2021/01/12 08:29:32;;;;;;;41.20;14.83;;;;;;;0.89;60.61;98228.80;2147760;83;21270;-77
2021/01/12 08:32:33;;;;;;;35.83;14.63;;;;;;;1.01;59.39;98225.42;2148365;83;21270;-77
2021/01/12 08:35:34;;;;;;;37.37;13.87;;;;;;;1.04;58.87;98232.37;2147865;83;21269;-75
2021/01/12 08:38:36;;;;;;;31.87;13.83;;;;;;;1.02;58.13;98225.89;2147292;83;21278;-76
2021/01/12 08:41:37;;;;;;;43.37;14.57;;;;;;;1.03;58.15;98218.66;2150991;82;21281;-78
2021/01/12 08:44:38;;;;;;;60.33;18.50;;;;;;;1.11;58.88;98218.95;2152175;82;21099;-78
2021/01/12 08:47:39;;;;;;;29.90;14.73;;;;;;;1.19;58.76;98218.42;2151929;82;21305;-77
2021/01/12 08:50:40;;;;;;;27.83;15.07;;;;;;;1.27;58.41;98220.88;2150964;82;21269;-77
2021/01/12 08:53:41;;;;;;;28.40;14.13;;;;;;;1.37;58.55;98217.37;2151763;82;21142;-76
2021/01/12 08:56:43;;;;;;;20.80;11.53;;;;;;;1.45;57.96;98210.81;2151023;82;21572;-77
2021/01/12 08:59:44;;;;;;;36.57;14.47;;;;;;;1.48;56.76;98215.66;2151040;82;21674;-77
2021/01/12 09:02:45;;;;;;;31.07;14.57;;;;;;;1.45;57.42;98214.67;2150366;82;21238;-78
2021/01/12 09:05:46;;;;;;;33.70;15.00;;;;;;;1.42;56.66;98213.27;2150830;82;21293;-77
2021/01/12 09:08:48;;;;;;;29.80;15.13;;;;;;;1.42;56.88;98202.98;2150993;82;21122;-76
2021/01/12 09:11:49;;;;;;;27.17;12.93;;;;;;;1.39;56.78;98201.59;2150630;82;21254;-77
2021/01/12 09:14:52;;;;;;;30.63;14.67;;;;;;;1.37;55.36;98194.23;2151416;82;21249;-78
2021/01/12 09:17:53;;;;;;;32.40;14.73;;;;;;;1.31;56.85;98186.28;2150608;82;21591;-76
2021/01/12 09:20:54;;;;;;;29.53;15.43;;;;;;;1.28;56.31;98184.06;2151733;82;21279;-76
2021/01/12 09:23:56;;;;;;;33.13;15.43;;;;;;;1.27;56.83;98175.89;2151644;82;21480;-78
2021/01/12 09:26:57;;;;;;;32.03;16.00;;;;;;;1.35;56.07;98177.86;2151251;82;21283;-77
2021/01/12 09:29:58;;;;;;;28.90;15.17;;;;;;;1.37;56.39;98161.67;2152082;82;21143;-77
2021/01/12 09:32:59;;;;;;;41.43;16.27;;;;;;;1.42;56.24;98165.70;2151350;82;21817;-77
2021/01/12 09:36:00;;;;;;;33.17;15.03;;;;;;;1.45;56.57;98155.11;2151039;82;21269;-78
2021/01/12 09:39:02;;;;;;;33.37;15.77;;;;;;;1.49;56.23;98152.23;2151413;82;21576;-78
2021/01/12 09:42:03;;;;;;;32.37;15.50;;;;;;;1.50;56.36;98151.42;2151767;82;21272;-76
2021/01/12 09:45:04;;;;;;;34.73;15.40;;;;;;;1.54;55.80;98154.16;2151399;82;21623;-75
2021/01/12 09:48:05;;;;;;;36.03;15.97;;;;;;;1.56;55.39;98140.94;2151352;83;21353;-77
2021/01/12 09:51:06;;;;;;;40.10;15.83;;;;;;;1.62;55.90;98130.41;2152333;83;21159;-77
2021/01/12 09:54:10;;;;;;;30.10;15.63;;;;;;;1.70;55.71;98119.97;2151808;82;21270;-77
2021/01/12 09:57:11;;;;;;;31.00;15.93;;;;;;;1.76;54.87;98115.07;2151385;83;21249;-78
2021/01/12 10:00:12;;;;;;;29.90;15.73;;;;;;;1.78;54.83;98112.14;2151687;82;21257;-78
2021/01/12 10:03:14;;;;;;;33.43;17.50;;;;;;;1.81;54.94;98102.83;2152141;82;21252;-78
2021/01/12 10:06:15;;;;;;;39.43;18.23;;;;;;;1.93;55.28;98094.64;2152430;82;21714;-78
2021/01/12 10:09:16;;;;;;;47.07;20.70;;;;;;;2.06;55.54;98080.06;2151892;82;21591;-78
2021/01/12 10:12:17;;;;;;;68.17;24.73;;;;;;;2.22;54.84;98081.44;2151863;82;21084;-78
2021/01/12 10:15:18;;;;;;;46.93;18.30;;;;;;;2.32;54.70;98068.03;2151136;82;21287;-77
2021/01/12 10:18:19;;;;;;;35.67;17.00;;;;;;;2.38;54.25;98065.64;2151699;82;21858;-78
2021/01/12 10:21:21;;;;;;;41.17;15.53;;;;;;;2.41;54.36;98059.30;2151875;82;21741;-77
2021/01/12 10:24:22;;;;;;;54.50;20.83;;;;;;;2.47;54.09;98062.06;2151587;82;21131;-79
2021/01/12 10:27:23;;;;;;;59.67;17.83;;;;;;;2.53;54.10;98057.10;2151652;82;21297;-77
2021/01/12 10:30:24;;;;;;;52.93;18.13;;;;;;;2.55;53.58;98033.97;2151204;82;21246;-77
2021/01/12 10:33:25;;;;;;;47.00;19.57;;;;;;;2.57;53.43;98032.31;2152006;83;21265;-78
2021/01/12 10:36:26;;;;;;;52.07;22.17;;;;;;;2.58;53.79;98027.61;2151579;82;21247;-78
2021/01/12 10:39:27;;;;;;;58.53;20.17;;;;;;;2.69;53.84;98021.52;2150752;82;21123;-77
2021/01/12 10:42:29;;;;;;;49.33;19.63;;;;;;;2.79;53.67;98015.80;2151074;82;21123;-76
2021/01/12 10:45:30;;;;;;;40.40;18.57;;;;;;;2.87;53.12;98005.30;2151118;82;21107;-76
2021/01/12 10:48:31;;;;;;;56.47;21.40;;;;;;;2.93;52.63;98004.60;2151137;82;21602;-79
2021/01/12 10:51:32;;;;;;;235.80;25.90;;;;;;;3.01;53.42;97998.83;2151080;82;21269;-77
2021/01/12 10:54:33;;;;;;;44.97;21.43;;;;;;;3.03;52.52;97988.14;2151699;82;21135;-78
2021/01/12 10:57:34;;;;;;;82.53;22.13;;;;;;;3.07;52.86;97998.13;2151707;82;21266;-78
2021/01/12 11:00:35;;;;;;;45.13;18.87;;;;;;;2.99;52.90;97990.18;2150925;82;21253;-77
2021/01/12 11:03:36;;;;;;;30.53;16.70;;;;;;;3.03;51.70;97985.56;2150889;82;21273;-76
2021/01/12 11:06:40;;;;;;;43.33;18.47;;;;;;;3.00;51.79;97974.30;2151273;82;21991;-78
2021/01/12 11:09:41;;;;;;;55.17;21.87;;;;;;;2.94;51.79;97973.71;2150900;82;21253;-77
2021/01/12 11:12:42;;;;;;;36.27;16.90;;;;;;;3.07;52.71;97971.92;2150975;83;21288;-77
2021/01/12 11:15:44;;;;;;;48.93;18.73;;;;;;;3.23;51.78;97959.44;2151631;82;21903;-78
2021/01/12 11:18:45;;;;;;;39.50;16.23;;;;;;;3.23;51.86;97956.45;2151728;83;21939;-79
2021/01/12 11:21:46;;;;;;;45.10;16.77;;;;;;;3.19;51.20;97952.04;2152217;82;21147;-78
2021/01/12 11:24:47;;;;;;;35.30;15.10;;;;;;;3.22;51.85;97951.25;2151994;82;21273;-78
2021/01/12 11:27:48;;;;;;;45.07;16.57;;;;;;;3.19;50.89;97945.17;2151443;82;21284;-78
2021/01/12 11:30:49;;;;;;;38.03;15.97;;;;;;;3.18;51.62;97936.98;2151595;82;21134;-78
2021/01/12 11:33:50;;;;;;;29.47;15.17;;;;;;;3.17;51.83;97930.08;2151494;82;21119;-78
2021/01/12 11:36:51;;;;;;;31.43;16.67;;;;;;;3.20;51.19;97930.16;2152414;82;21603;-78
2021/01/12 11:39:52;;;;;;;56.03;16.70;;;;;;;3.16;51.74;97930.91;2151808;82;21274;-74
2021/01/12 11:42:53;;;;;;;31.17;15.00;;;;;;;3.15;51.74;97926.59;2149043;82;21468;-78
2021/01/12 11:45:55;;;;;;;52.27;21.90;;;;;;;3.13;51.97;97915.78;2148004;82;21170;-78
2021/01/12 11:48:56;;;;;;;58.13;21.50;;;;;;;3.18;52.40;97918.93;2148145;83;21143;-76
2021/01/12 11:51:57;;;;;;;46.70;18.73;;;;;;;3.25;52.43;97911.35;2149170;83;21472;-76
2021/01/12 11:54:58;;;;;;;35.90;16.27;;;;;;;3.22;51.67;97909.56;2148587;83;21099;-77
2021/01/12 11:57:59;;;;;;;37.63;17.57;;;;;;;3.18;51.32;97903.45;2147841;83;21292;-77
2021/01/12 12:01:00;;;;;;;41.47;16.30;;;;;;;3.15;51.42;97895.64;2148044;83;21139;-76
2021/01/12 12:04:01;;;;;;;43.70;16.03;;;;;;;3.01;51.06;97890.97;2148518;83;21273;-77
2021/01/12 12:07:02;;;;;;;45.97;16.90;;;;;;;2.95;51.93;97883.07;2148277;83;21277;-78
2021/01/12 12:10:03;;;;;;;26.90;14.23;;;;;;;2.99;51.65;97890.92;2148269;83;21151;-78
2021/01/12 12:13:04;;;;;;;54.93;19.00;;;;;;;3.00;51.28;97886.64;2148841;83;21127;-77
2021/01/12 12:16:05;;;;;;;37.47;14.23;;;;;;;3.02;51.73;97876.83;2148749;83;21150;-78
2021/01/12 12:19:06;;;;;;;33.30;14.33;;;;;;;3.07;50.79;97873.95;2148142;83;21830;-78
2021/01/12 12:22:07;;;;;;;30.83;15.90;;;;;;;3.12;51.56;97865.04;2148027;83;21666;-77
2021/01/12 12:25:10;;;;;;;31.20;15.50;;;;;;;3.23;52.03;97864.89;2147578;83;21269;-77
2021/01/12 12:28:11;;;;;;;41.47;14.43;;;;;;;3.36;51.50;97861.78;2147874;83;21289;-79
2021/01/12 12:31:12;;;;;;;93.17;17.47;;;;;;;3.39;51.59;97859.27;2148501;83;21337;-78
2021/01/12 12:34:14;;;;;;;38.30;15.10;;;;;;;3.41;52.19;97856.31;2147482;83;21261;-78
2021/01/12 12:37:15;;;;;;;43.07;15.07;;;;;;;3.44;52.20;97856.38;2147019;83;21269;-76
2021/01/12 12:40:18;;;;;;;33.13;13.67;;;;;;;3.37;50.70;97845.88;2147927;82;21124;-78
2021/01/12 12:43:18;;;;;;;26.93;14.00;;;;;;;3.27;51.12;97838.76;2150425;82;21918;-78
2021/01/12 12:46:20;;;;;;;30.80;14.60;;;;;;;3.21;51.87;97834.33;2151736;82;21155;-77
2021/01/12 12:49:21;;;;;;;37.60;14.40;;;;;;;3.16;52.31;97835.91;2150807;82;21249;-77
2021/01/12 12:52:22;;;;;;;44.13;14.27;;;;;;;3.14;52.44;97828.14;2151855;82;21583;-80
2021/01/12 12:55:23;;;;;;;26.73;15.77;;;;;;;3.68;56.32;97817.41;2151348;82;21312;-77
2021/01/12 12:58:24;;;;;;;29.37;14.03;;;;;;;4.74;51.81;97817.44;2151924;82;21261;-77
2021/01/12 13:01:25;;;;;;;27.37;14.47;;;;;;;4.37;50.59;97816.30;2150882;82;21285;-79
2021/01/12 13:04:26;;;;;;;30.03;14.33;;;;;;;3.94;50.95;97820.97;2149623;82;21249;-78
2021/01/12 13:07:28;;;;;;;32.53;14.40;;;;;;;3.72;51.88;97815.34;2149244;83;21643;-77
2021/01/12 13:10:29;;;;;;;33.60;13.53;;;;;;;3.57;52.05;97823.16;2149371;82;21934;-79
2021/01/12 13:13:30;;;;;;;31.17;12.67;;;;;;;3.40;51.99;97818.45;2150694;82;21242;-77
2021/01/12 13:16:31;;;;;;;27.03;12.80;;;;;;;3.26;52.06;97824.98;2150733;82;21269;-77
2021/01/12 13:19:33;;;;;;;26.83;12.60;;;;;;;3.11;52.66;97820.33;2151380;82;21159;-77
2021/01/12 13:22:34;;;;;;;26.07;13.37;;;;;;;3.02;52.47;97816.66;2151702;82;21591;-77
2021/01/12 13:25:35;;;;;;;29.90;14.80;;;;;;;2.94;53.26;97806.16;2152082;82;21273;-78
2021/01/12 13:28:37;;;;;;;32.23;13.73;;;;;;;2.88;53.22;97809.45;2151997;82;21923;-78
2021/01/12 13:31:38;;;;;;;26.50;14.13;;;;;;;2.85;53.80;97805.50;2151822;82;21254;-77
2021/01/12 13:34:39;;;;;;;27.27;13.67;;;;;;;2.84;54.04;97802.47;2149824;82;21268;-77
2021/01/12 13:37:40;;;;;;;26.87;14.53;;;;;;;2.80;53.51;97798.48;2151332;82;21265;-77
2021/01/12 13:40:41;;;;;;;35.87;15.07;;;;;;;2.75;54.29;97796.21;2151124;82;21257;-78
2021/01/12 13:43:42;;;;;;;29.20;13.87;;;;;;;2.77;54.47;97800.98;2151904;83;21850;-78
2021/01/12 13:46:43;;;;;;;33.47;13.40;;;;;;;2.70;53.75;97802.95;2151985;82;22006;-78
2021/01/12 13:49:44;;;;;;;27.77;14.23;;;;;;;2.63;54.29;97793.32;2152055;82;21261;-78
2021/01/12 13:52:46;;;;;;;23.33;12.03;;;;;;;2.59;54.79;97785.02;2151660;83;21265;-78
2021/01/12 13:55:47;;;;;;;24.70;12.97;;;;;;;2.56;54.46;97784.11;2152621;83;21144;-78